Time;durP1;ratioP1;P1;durP2;ratioP2;P2;SDS_P1;SDS_P2;PMS_P1;PMS_P2;Temp;Humidity;BMP_temperature;BMP_pressure;BME280_temperature;BME280_humidity;BME280_pressure;Samples;Min_cycle;Max_cycle;Signal;HPM_P1;HPM_P2
2021/08/27 00:01:33;;;;;;;6.20;1.20;;;25.50;48.80;;;;;;5148280;27;20526;-76
2021/08/27 00:04:02;;;;;;;1.27;1.10;;;25.40;48.80;;;;;;5149288;27;20442;-75
2021/08/27 00:06:30;;;;;;;3.63;1.17;;;25.40;48.90;;;;;;5148043;27;20462;-75
2021/08/27 00:08:58;;;;;;;5.60;1.20;;;25.40;49.10;;;;;;5147375;27;20433;-75
2021/08/27 00:11:26;;;;;;;4.07;1.30;;;25.40;49.10;;;;;;5138455;27;20438;-76
2021/08/27 00:13:56;;;;;;;3.60;1.23;;;25.30;49.10;;;;;;5129412;27;20497;-75
2021/08/27 00:16:24;;;;;;;5.47;1.20;;;25.30;49.10;;;;;;5144807;27;20492;-75
2021/08/27 00:18:52;;;;;;;1.80;1.20;;;25.30;49.20;;;;;;5126350;27;20446;-76
2021/08/27 00:21:20;;;;;;;2.90;1.00;;;25.30;49.20;;;;;;5135975;27;20412;-75
2021/08/27 00:23:48;;;;;;;2.27;1.20;;;25.30;49.20;;;;;;5148450;27;20458;-75
2021/08/27 00:26:18;;;;;;;2.60;1.47;;;25.20;49.20;;;;;;5148808;27;20447;-75
2021/08/27 00:28:50;;;;;;;3.70;1.33;;;25.20;49.30;;;;;;5148426;27;20441;-75
2021/08/27 00:31:19;;;;;;;1.77;1.03;;;25.20;49.20;;;;;;5136701;27;20417;-75
2021/08/27 00:33:47;;;;;;;2.60;1.10;;;25.20;49.30;;;;;;5126984;27;20429;-76
2021/08/27 00:36:15;;;;;;;2.60;1.50;;;25.20;49.40;;;;;;5127351;27;20441;-75
2021/08/27 00:38:43;;;;;;;3.53;1.30;;;25.20;49.40;;;;;;5127089;27;20435;-75
2021/08/27 00:41:12;;;;;;;4.60;1.03;;;25.20;49.40;;;;;;5127573;27;20447;-76
2021/08/27 00:43:40;;;;;;;1.57;1.17;;;25.20;49.40;;;;;;5127204;27;20398;-76
2021/08/27 00:46:08;;;;;;;2.63;1.43;;;25.10;49.50;;;;;;5128917;27;20543;-75
2021/08/27 00:48:38;;;;;;;4.73;1.20;;;25.10;49.50;;;;;;5147535;27;20470;-75
2021/08/27 00:51:06;;;;;;;6.37;1.43;;;25.10;49.60;;;;;;5145125;27;20500;-75
2021/08/27 00:53:34;;;;;;;3.33;1.50;;;25.10;49.60;;;;;;5146540;27;20413;-75
2021/08/27 00:56:03;;;;;;;2.70;1.10;;;25.10;49.70;;;;;;5146566;27;20438;-75
2021/08/27 00:58:31;;;;;;;1.00;1.00;;;25.10;49.70;;;;;;5146792;27;20437;-75
2021/08/27 01:00:59;;;;;;;2.60;1.10;;;25.00;49.70;;;;;;5147225;27;20448;-75
2021/08/27 01:03:27;;;;;;;3.83;1.20;;;25.00;49.80;;;;;;5147758;27;20401;-76
2021/08/27 01:06:05;;;;;;;3.27;1.30;;;25.00;49.80;;;;;;5147426;27;20455;-75
2021/08/27 01:08:35;;;;;;;5.27;1.63;;;25.00;49.90;;;;;;5146654;27;20469;-75
2021/08/27 01:11:07;;;;;;;2.97;1.13;;;25.00;49.90;;;;;;5141288;27;20489;-75
2021/08/27 01:13:38;;;;;;;3.70;1.10;;;25.00;49.90;;;;;;5138091;27;20446;-75
2021/08/27 01:16:07;;;;;;;2.03;1.10;;;25.00;49.90;;;;;;5126749;27;20423;-75
2021/08/27 01:18:40;;;;;;;3.00;1.33;;;25.00;49.90;;;;;;5140750;27;20446;-75
2021/08/27 01:21:42;;;;;;;6.33;1.30;;;25.00;49.90;;;;;;5139894;27;20461;-75
2021/08/27 01:24:10;;;;;;;4.03;1.37;;;25.00;50.00;;;;;;5126961;27;20454;-75
2021/08/27 01:26:40;;;;;;;2.07;1.37;;;24.90;49.90;;;;;;5136324;27;20501;-75
2021/08/27 01:29:09;;;;;;;6.43;1.33;;;24.90;49.90;;;;;;5140626;27;20491;-74
2021/08/27 01:31:40;;;;;;;2.37;1.30;;;25.00;50.00;;;;;;5132742;27;20450;-76
2021/08/27 01:34:31;;;;;;;7.37;1.20;;;24.90;50.00;;;;;;5129882;27;20404;-75
2021/08/27 01:37:07;;;;;;;5.03;1.50;;;24.90;50.10;;;;;;5142218;27;20445;-76
2021/08/27 01:39:38;;;;;;;3.23;1.30;;;24.90;50.10;;;;;;5144323;27;20463;-76
2021/08/27 01:42:09;;;;;;;1.67;0.97;;;24.80;50.10;;;;;;5146032;27;20444;-75
2021/08/27 01:44:38;;;;;;;10.10;1.80;;;24.80;50.20;;;;;;5141269;27;20430;-75
2021/08/27 01:47:08;;;;;;;3.80;1.47;;;24.80;50.10;;;;;;5144242;27;20481;-75
2021/08/27 01:49:37;;;;;;;4.20;1.47;;;24.80;50.10;;;;;;5145371;27;20431;-76
2021/08/27 01:52:07;;;;;;;4.50;1.47;;;24.80;50.20;;;;;;5144824;27;20420;-75
2021/08/27 01:54:35;;;;;;;5.20;1.23;;;24.80;50.20;;;;;;5146230;27;20404;-75
2021/08/27 01:57:04;;;;;;;2.60;1.07;;;24.80;50.30;;;;;;5146078;27;20405;-75
2021/08/27 01:59:34;;;;;;;4.00;1.60;;;24.80;50.90;;;;;;5146140;27;20440;-75
2021/08/27 02:02:02;;;;;;;4.00;1.57;;;24.80;50.40;;;;;;5145069;27;20428;-75
2021/08/27 02:04:33;;;;;;;3.13;1.17;;;24.80;50.20;;;;;;5141982;27;20534;-76
2021/08/27 02:07:03;;;;;;;5.63;1.40;;;24.80;50.30;;;;;;5141776;27;20493;-75
2021/08/27 02:09:31;;;;;;;5.17;1.67;;;24.80;50.30;;;;;;5139749;27;20515;-75
2021/08/27 02:11:59;;;;;;;4.30;1.30;;;24.80;50.30;;;;;;5138700;27;20489;-75
2021/08/27 02:14:27;;;;;;;7.50;1.63;;;24.80;50.40;;;;;;5142184;27;20444;-75
2021/08/27 02:16:55;;;;;;;3.10;1.70;;;24.80;50.40;;;;;;5141106;27;20393;-76
2021/08/27 02:19:23;;;;;;;3.43;1.20;;;24.80;50.30;;;;;;5138416;27;20421;-76
2021/08/27 02:21:53;;;;;;;5.33;1.30;;;24.80;50.40;;;;;;5141495;27;20405;-75
2021/08/27 02:24:24;;;;;;;9.40;1.73;;;24.80;50.30;;;;;;5141181;27;20434;-75
2021/08/27 02:26:52;;;;;;;8.90;1.73;;;24.80;50.40;;;;;;5142298;27;20409;-75
2021/08/27 02:29:20;;;;;;;3.50;1.73;;;24.80;50.40;;;;;;5138442;27;20401;-75
2021/08/27 02:31:50;;;;;;;4.13;1.27;;;24.70;50.30;;;;;;5141509;27;20489;-75
2021/08/27 02:34:18;;;;;;;4.73;1.27;;;24.70;50.40;;;;;;5140251;27;20461;-76
2021/08/27 02:36:48;;;;;;;7.23;1.40;;;24.70;50.50;;;;;;5138739;27;20449;-75
2021/08/27 02:39:16;;;;;;;6.37;1.50;;;24.70;50.40;;;;;;5139776;27;20415;-75
2021/08/27 02:41:45;;;;;;;3.73;1.63;;;24.70;50.40;;;;;;5141802;27;20414;-75
2021/08/27 02:44:13;;;;;;;11.73;1.40;;;24.60;50.50;;;;;;5139307;27;20516;-75
2021/08/27 02:46:41;;;;;;;5.87;1.60;;;24.60;50.50;;;;;;5133187;27;20412;-75
2021/08/27 02:49:09;;;;;;;3.60;1.43;;;24.70;50.60;;;;;;5133890;27;20509;-75
2021/08/27 02:51:40;;;;;;;4.50;1.17;;;24.70;50.50;;;;;;5133951;27;20471;-75
2021/08/27 02:54:09;;;;;;;4.87;1.27;;;24.70;50.50;;;;;;5139193;27;20446;-76
2021/08/27 02:56:38;;;;;;;3.93;1.70;;;24.60;50.60;;;;;;5140420;27;20489;-76
2021/08/27 02:59:11;;;;;;;6.20;1.47;;;24.60;50.60;;;;;;5140916;27;20422;-75
2021/08/27 03:01:40;;;;;;;3.67;1.50;;;24.60;50.60;;;;;;5141029;27;20493;-75
2021/08/27 03:04:16;;;;;;;9.97;1.43;;;24.60;50.70;;;;;;5141253;27;20430;-76
2021/08/27 03:06:46;;;;;;;3.77;1.40;;;24.60;50.70;;;;;;5132800;27;20537;-75
2021/08/27 03:09:14;;;;;;;1.53;1.30;;;24.60;50.80;;;;;;5119357;27;20540;-75
2021/08/27 03:11:46;;;;;;;2.60;1.40;;;24.60;50.70;;;;;;5120806;27;20527;-75
2021/08/27 03:14:26;;;;;;;1.60;1.23;;;24.50;50.60;;;;;;5127501;27;20442;-75
2021/08/27 03:16:54;;;;;;;4.20;1.40;;;24.50;50.80;;;;;;5139765;27;20521;-76
2021/08/27 03:19:25;;;;;;;4.53;1.47;;;24.50;50.90;;;;;;5131976;27;20499;-75
2021/08/27 03:21:58;;;;;;;3.53;1.20;;;24.50;50.80;;;;;;5141418;27;20460;-76
2021/08/27 03:24:29;;;;;;;3.73;1.70;;;24.50;50.90;;;;;;5145236;27;20513;-76
2021/08/27 03:27:00;;;;;;;3.43;1.50;;;24.50;51.00;;;;;;5134046;27;20532;-75
2021/08/27 03:29:30;;;;;;;7.43;1.83;;;24.40;50.80;;;;;;5131071;27;20470;-75
2021/08/27 03:31:58;;;;;;;1.83;1.37;;;24.40;50.80;;;;;;5130082;27;20445;-75
2021/08/27 03:34:26;;;;;;;5.30;1.20;;;24.40;50.90;;;;;;5143055;27;20438;-75
2021/08/27 03:36:55;;;;;;;3.00;1.20;;;24.50;51.00;;;;;;5131552;27;20426;-75
2021/08/27 03:39:23;;;;;;;5.73;1.47;;;24.40;50.90;;;;;;5144358;27;20417;-75
2021/08/27 03:41:51;;;;;;;5.93;1.00;;;24.40;50.80;;;;;;5134244;27;20458;-76
2021/08/27 03:44:19;;;;;;;2.30;1.30;;;24.40;50.80;;;;;;5138761;27;20473;-77
2021/08/27 03:46:49;;;;;;;10.80;1.80;;;24.40;50.90;;;;;;5140041;27;20442;-75
2021/08/27 03:49:17;;;;;;;1.80;1.30;;;24.40;50.90;;;;;;5142568;27;20518;-75
2021/08/27 03:51:45;;;;;;;6.10;1.93;;;24.40;50.90;;;;;;5141563;27;20556;-75
2021/08/27 03:54:16;;;;;;;3.77;1.20;;;24.40;50.90;;;;;;5138813;27;20462;-75
2021/08/27 03:56:44;;;;;;;3.70;1.30;;;24.40;51.10;;;;;;5145103;27;20438;-75
2021/08/27 03:59:12;;;;;;;1.53;1.10;;;24.40;50.90;;;;;;5135110;27;20402;-75
2021/08/27 04:01:40;;;;;;;4.97;1.47;;;24.40;50.90;;;;;;5132472;27;20459;-80
2021/08/27 04:04:10;;;;;;;2.43;1.43;;;24.40;50.90;;;;;;5133409;27;20401;-81
2021/08/27 04:06:38;;;;;;;4.50;1.57;;;24.40;50.90;;;;;;5133078;27;20475;-81
2021/08/27 04:09:06;;;;;;;4.40;1.40;;;24.30;50.90;;;;;;5138440;27;20488;-81
2021/08/27 04:11:34;;;;;;;4.20;1.43;;;24.30;51.00;;;;;;5123819;27;20472;-81
2021/08/27 04:14:02;;;;;;;4.77;1.40;;;24.30;51.00;;;;;;5134280;27;20479;-81
2021/08/27 04:16:30;;;;;;;3.63;1.53;;;24.30;51.00;;;;;;5131168;27;20445;-80
2021/08/27 04:18:58;;;;;;;3.50;1.50;;;24.30;51.00;;;;;;5135044;27;20450;-81
2021/08/27 04:21:27;;;;;;;3.23;1.17;;;24.30;51.00;;;;;;5129175;27;20477;-81
2021/08/27 04:23:56;;;;;;;4.30;1.60;;;24.30;51.00;;;;;;5136471;27;20486;-81
2021/08/27 04:26:24;;;;;;;6.63;1.30;;;24.30;51.00;;;;;;5137983;27;20458;-81
2021/08/27 04:28:52;;;;;;;1.43;1.33;;;24.30;51.00;;;;;;5142980;27;20474;-81
2021/08/27 04:31:20;;;;;;;3.47;1.30;;;24.30;51.00;;;;;;5138203;27;20489;-81
2021/08/27 04:33:50;;;;;;;7.83;1.77;;;24.30;51.00;;;;;;5134430;27;20458;-80
2021/08/27 04:36:18;;;;;;;4.30;1.43;;;24.30;51.00;;;;;;5141884;27;20448;-80
2021/08/27 04:38:48;;;;;;;1.27;1.10;;;24.30;51.00;;;;;;5143332;27;20464;-81
2021/08/27 04:41:16;;;;;;;2.57;1.30;;;24.30;51.10;;;;;;5127500;27;20439;-80
2021/08/27 04:43:44;;;;;;;4.97;1.40;;;24.20;51.00;;;;;;5123137;27;20458;-80
2021/08/27 04:46:13;;;;;;;4.53;1.30;;;24.30;51.00;;;;;;5137266;27;20483;-80
2021/08/27 04:48:42;;;;;;;6.00;1.30;;;24.20;51.00;;;;;;5143163;27;20553;-80
2021/08/27 04:51:10;;;;;;;8.10;1.40;;;24.20;51.00;;;;;;5137665;27;20463;-80
2021/08/27 04:53:38;;;;;;;1.83;1.47;;;24.20;51.00;;;;;;5123156;27;20474;-80
2021/08/27 04:56:07;;;;;;;1.53;1.20;;;24.20;51.00;;;;;;5142339;27;20441;-80
2021/08/27 04:58:36;;;;;;;2.53;1.53;;;24.20;51.10;;;;;;5142071;27;20461;-80
2021/08/27 05:01:04;;;;;;;1.30;1.20;;;24.20;51.10;;;;;;5142322;27;20521;-80
2021/08/27 05:03:32;;;;;;;1.97;1.30;;;24.20;51.00;;;;;;5138519;27;20458;-80
2021/08/27 05:06:00;;;;;;;2.80;1.30;;;24.20;51.10;;;;;;5142474;27;20458;-80
2021/08/27 05:08:28;;;;;;;1.57;0.90;;;24.20;51.10;;;;;;5141795;27;20482;-80
2021/08/27 05:10:56;;;;;;;3.53;1.47;;;24.20;51.10;;;;;;5138916;27;20434;-80
2021/08/27 05:13:26;;;;;;;2.80;1.40;;;24.20;51.10;;;;;;5132017;27;20409;-79
2021/08/27 05:15:54;;;;;;;2.60;1.40;;;24.20;51.10;;;;;;5138165;27;20434;-79
2021/08/27 05:18:22;;;;;;;2.20;1.40;;;24.20;51.10;;;;;;5143539;27;20434;-80
2021/08/27 05:20:50;;;;;;;5.10;1.50;;;24.20;51.10;;;;;;5123564;27;20509;-79
2021/08/27 05:23:18;;;;;;;2.90;1.40;;;24.20;51.10;;;;;;5120484;27;20417;-79
2021/08/27 05:25:46;;;;;;;2.17;1.27;;;24.20;51.10;;;;;;5126917;27;20454;-80
2021/08/27 05:28:14;;;;;;;1.80;1.40;;;24.20;51.00;;;;;;5126788;27;20431;-80
2021/08/27 05:30:43;;;;;;;3.97;1.30;;;24.20;51.00;;;;;;5124189;27;20437;-80
2021/08/27 05:33:12;;;;;;;7.13;1.40;;;24.20;51.60;;;;;;5129172;27;20500;-80
2021/08/27 05:35:41;;;;;;;3.43;1.37;;;24.20;51.10;;;;;;5128304;27;20426;-80
2021/08/27 05:38:09;;;;;;;2.80;1.10;;;24.30;51.10;;;;;;5127662;27;20471;-80
2021/08/27 05:40:37;;;;;;;2.30;1.33;;;24.30;50.90;;;;;;5119600;27;20485;-80
2021/08/27 05:43:05;;;;;;;1.23;1.13;;;24.40;50.90;;;;;;5132491;27;20443;-79
2021/08/27 05:45:33;;;;;;;2.17;1.10;;;24.40;50.90;;;;;;5132852;27;20437;-79
2021/08/27 05:48:02;;;;;;;3.80;1.40;;;24.40;50.80;;;;;;5135158;27;20405;-79
2021/08/27 05:50:30;;;;;;;3.90;1.23;;;24.40;50.80;;;;;;5140590;27;20478;-79
2021/08/27 05:52:58;;;;;;;1.33;0.97;;;24.40;50.90;;;;;;5139161;27;20458;-79
2021/08/27 05:55:26;;;;;;;1.93;1.20;;;24.40;50.80;;;;;;5138254;27;20438;-79
2021/08/27 05:57:56;;;;;;;2.70;1.20;;;24.40;50.80;;;;;;5137749;27;20412;-79
2021/08/27 06:00:24;;;;;;;2.10;1.17;;;24.50;50.90;;;;;;5130524;27;20455;-79
2021/08/27 06:02:52;;;;;;;4.00;1.27;;;24.50;50.70;;;;;;5120141;27;20443;-79
2021/08/27 06:05:22;;;;;;;3.23;1.40;;;24.50;50.70;;;;;;5133410;27;20405;-80
2021/08/27 06:07:50;;;;;;;2.57;1.30;;;24.50;50.60;;;;;;5128645;27;20462;-79
2021/08/27 06:10:18;;;;;;;1.40;1.10;;;24.50;50.70;;;;;;5136926;27;20497;-79
2021/08/27 06:12:46;;;;;;;2.40;1.17;;;24.60;50.70;;;;;;5130885;27;20475;-79
2021/08/27 06:15:15;;;;;;;1.37;1.20;;;24.60;50.60;;;;;;5140984;27;20430;-79
2021/08/27 06:17:43;;;;;;;3.03;1.40;;;24.60;50.60;;;;;;5139535;27;20502;-79
2021/08/27 06:20:12;;;;;;;2.10;1.30;;;24.70;50.70;;;;;;5136777;27;20422;-79
2021/08/27 06:22:41;;;;;;;1.77;1.50;;;24.70;50.40;;;;;;5136210;27;20546;-80
2021/08/27 06:25:09;;;;;;;4.90;1.37;;;24.70;50.40;;;;;;5136128;27;20466;-80
2021/08/27 06:27:37;;;;;;;3.37;1.30;;;24.70;50.40;;;;;;5135407;27;20446;-79
2021/08/27 06:30:06;;;;;;;3.50;1.30;;;24.70;50.30;;;;;;5134780;27;20497;-80
2021/08/27 06:32:34;;;;;;;2.10;1.47;;;24.70;50.40;;;;;;5141136;27;20434;-79
2021/08/27 06:35:06;;;;;;;1.70;1.10;;;24.80;50.40;;;;;;5139258;27;20421;-80
2021/08/27 06:40:21;;;;;;;1.53;1.30;;;24.80;50.50;;;;;;5121351;27;20455;-79
2021/08/27 06:42:49;;;;;;;1.77;1.20;;;24.80;50.40;;;;;;5119577;27;20423;-79
2021/08/27 06:45:18;;;;;;;2.33;1.50;;;24.80;50.40;;;;;;5133170;27;20498;-80
2021/08/27 06:47:45;;;;;;;7.13;1.50;;;24.80;50.30;;;;;;5124638;27;20562;-80
2021/08/27 06:50:13;;;;;;;1.73;1.40;;;24.80;50.40;;;;;;5137382;27;20481;-79
2021/08/27 06:52:41;;;;;;;3.17;1.20;;;24.80;50.40;;;;;;5139961;27;20413;-79
2021/08/27 06:55:11;;;;;;;4.67;1.30;;;24.80;50.40;;;;;;5133967;27;20434;-79
2021/08/27 06:57:42;;;;;;;1.73;1.30;;;24.80;50.30;;;;;;5143223;27;20438;-80
2021/08/27 07:00:12;;;;;;;2.60;1.13;;;24.80;50.30;;;;;;5144662;27;20437;-80
2021/08/27 07:02:40;;;;;;;2.03;1.37;;;24.90;50.40;;;;;;5143341;27;20447;-80
2021/08/27 07:05:09;;;;;;;3.27;1.17;;;24.90;50.30;;;;;;5130844;27;20439;-79
2021/08/27 07:07:37;;;;;;;1.07;0.97;;;24.90;50.30;;;;;;5135361;27;20586;-80
2021/08/27 07:10:06;;;;;;;2.60;1.47;;;25.00;50.40;;;;;;5136919;27;20493;-80
2021/08/27 07:12:34;;;;;;;1.80;1.10;;;25.00;50.10;;;;;;5135772;27;20421;-80
2021/08/27 07:15:04;;;;;;;1.40;1.10;;;25.00;50.20;;;;;;5144245;27;20440;-79
2021/08/27 07:17:33;;;;;;;2.73;1.20;;;25.10;50.30;;;;;;5144040;27;20473;-79
2021/08/27 07:20:05;;;;;;;1.67;1.10;;;25.20;50.10;;;;;;5143865;27;20476;-78
2021/08/27 07:22:32;;;;;;;3.33;1.30;;;25.30;50.00;;;;;;5139510;27;20466;-78
2021/08/27 07:25:00;;;;;;;2.57;1.43;;;25.30;49.80;;;;;;5144267;27;20430;-78
2021/08/27 07:27:28;;;;;;;1.20;1.10;;;25.40;49.60;;;;;;5143988;27;20500;-78
2021/08/27 07:29:56;;;;;;;2.00;1.20;;;25.50;49.60;;;;;;5138103;27;20476;-78
2021/08/27 07:32:26;;;;;;;1.57;1.20;;;25.50;49.70;;;;;;5139592;27;20525;-78
2021/08/27 07:34:54;;;;;;;1.17;1.07;;;25.60;50.10;;;;;;5144067;27;20533;-79
2021/08/27 07:37:22;;;;;;;1.17;1.00;;;25.60;49.40;;;;;;5139569;27;20398;-80
2021/08/27 07:39:50;;;;;;;1.30;1.20;;;25.50;49.30;;;;;;5139680;27;20496;-80
2021/08/27 07:42:18;;;;;;;1.63;1.30;;;25.50;49.40;;;;;;5144354;27;20501;-80
2021/08/27 07:44:46;;;;;;;2.30;1.30;;;25.40;49.50;;;;;;5137086;27;20413;-80
2021/08/27 07:47:14;;;;;;;3.83;1.37;;;25.50;49.70;;;;;;5138542;27;20405;-81
2021/08/27 07:49:43;;;;;;;2.50;1.30;;;25.50;49.70;;;;;;5143036;27;20501;-81
2021/08/27 07:52:11;;;;;;;1.63;1.07;;;25.60;49.70;;;;;;5144936;27;20510;-79
2021/08/27 07:54:40;;;;;;;1.30;1.20;;;25.60;49.60;;;;;;5143343;27;20437;-78
2021/08/27 07:57:07;;;;;;;2.00;1.70;;;25.70;49.50;;;;;;5141014;27;20404;-79
2021/08/27 07:59:35;;;;;;;1.30;1.20;;;25.70;49.40;;;;;;5131206;27;20418;-82
2021/08/27 08:02:03;;;;;;;1.77;1.60;;;25.70;49.30;;;;;;5138303;27;20502;-82
2021/08/27 08:04:32;;;;;;;1.47;1.20;;;25.80;49.10;;;;;;5145430;27;20401;-81
2021/08/27 08:07:01;;;;;;;2.40;1.70;;;25.70;49.10;;;;;;5145033;27;20483;-82
2021/08/27 08:09:29;;;;;;;1.57;1.30;;;25.70;49.00;;;;;;5144453;27;20446;-80
2021/08/27 08:11:57;;;;;;;5.70;2.30;;;25.70;49.00;;;;;;5146275;27;20447;-82
2021/08/27 08:14:26;;;;;;;5.77;2.30;;;24.60;52.00;;;;;;5148152;27;20453;-81
2021/08/27 08:16:54;;;;;;;10.07;2.67;;;23.80;54.30;;;;;;5148275;27;20445;-80
2021/08/27 08:19:22;;;;;;;8.23;2.07;;;23.10;56.90;;;;;;5147843;27;20465;-82
2021/08/27 08:21:50;;;;;;;6.77;2.70;;;23.00;58.00;;;;;;5148073;27;20442;-85
2021/08/27 08:24:20;;;;;;;6.00;2.07;;;23.00;58.50;;;;;;5144429;27;20506;-83
2021/08/27 08:26:48;;;;;;;13.60;8.40;;;22.40;59.30;;;;;;5148549;27;20491;-84
2021/08/27 08:29:18;;;;;;;13.73;2.90;;;22.40;62.00;;;;;;5147898;27;20514;-84
2021/08/27 08:31:47;;;;;;;5.90;2.60;;;22.50;60.70;;;;;;5148484;27;20444;-86
2021/08/27 08:34:18;;;;;;;12.50;2.90;;;22.70;60.00;;;;;;5148409;27;20474;-82
2021/08/27 08:36:48;;;;;;;6.20;2.87;;;22.60;59.20;;;;;;5148390;27;20445;-84
2021/08/27 08:39:17;;;;;;;5.70;1.97;;;22.40;60.60;;;;;;5147832;27;20507;-83
2021/08/27 08:41:47;;;;;;;5.27;2.03;;;22.50;60.00;;;;;;5141707;27;20429;-84
2021/08/27 08:44:15;;;;;;;11.30;2.80;;;22.80;60.70;;;;;;5147766;27;20418;-82
2021/08/27 08:46:45;;;;;;;4.30;1.73;;;23.30;58.10;;;;;;5147385;27;20401;-84
2021/08/27 08:49:14;;;;;;;6.30;2.10;;;22.70;58.60;;;;;;5147258;27;20417;-84
2021/08/27 08:51:44;;;;;;;3.63;2.03;;;22.80;59.60;;;;;;5146592;27;20562;-84
2021/08/27 08:54:13;;;;;;;6.00;2.13;;;23.00;58.40;;;;;;5147141;27;20498;-84
2021/08/27 08:56:43;;;;;;;4.90;1.90;;;23.10;59.40;;;;;;5141874;27;20445;-83
2021/08/27 08:59:14;;;;;;;3.90;1.80;;;22.90;59.60;;;;;;5126582;27;20436;-80
2021/08/27 09:01:42;;;;;;;6.57;2.00;;;23.20;61.80;;;;;;5143844;27;20449;-84
2021/08/27 09:04:11;;;;;;;2.50;1.83;;;23.70;59.80;;;;;;5146687;27;20404;-82
2021/08/27 09:06:39;;;;;;;6.50;1.90;;;24.10;58.40;;;;;;5147515;27;20466;-84
2021/08/27 09:09:07;;;;;;;5.10;1.83;;;24.40;57.50;;;;;;5144181;27;20401;-83
2021/08/27 09:11:35;;;;;;;5.77;2.00;;;24.60;56.40;;;;;;5146996;27;20469;-83
2021/08/27 09:14:04;;;;;;;2.40;1.63;;;24.80;55.70;;;;;;5146571;27;20404;-82
2021/08/27 09:16:36;;;;;;;4.03;1.80;;;25.00;55.20;;;;;;5144095;27;20475;-82
2021/08/27 09:19:04;;;;;;;4.00;1.90;;;25.20;54.50;;;;;;5146363;27;20438;-86
2021/08/27 09:21:38;;;;;;;2.97;1.67;;;25.20;53.90;;;;;;5148373;27;20465;-82
2021/08/27 09:24:17;;;;;;;3.00;1.70;;;25.40;53.40;;;;;;5146888;27;20464;-81
2021/08/27 09:26:46;;;;;;;6.63;2.33;;;25.40;53.10;;;;;;5145624;27;20502;-83
2021/08/27 09:29:38;;;;;;;2.00;1.80;;;25.50;52.90;;;;;;5146135;27;20445;-83
2021/08/27 09:32:23;;;;;;;6.03;1.70;;;25.70;52.60;;;;;;5144427;27;20466;-83
2021/08/27 09:35:07;;;;;;;1.93;1.70;;;25.80;52.10;;;;;;5144889;27;20477;-81
2021/08/27 09:37:37;;;;;;;4.00;1.90;;;25.90;51.60;;;;;;5143138;27;20409;-80
2021/08/27 09:40:07;;;;;;;4.60;2.00;;;26.00;51.40;;;;;;5146123;27;20430;-80
2021/08/27 09:42:42;;;;;;;2.60;1.50;;;26.00;51.00;;;;;;5142083;27;20521;-81
2021/08/27 09:45:11;;;;;;;3.40;1.70;;;26.00;50.90;;;;;;5146292;27;20433;-81
2021/08/27 09:47:55;;;;;;;2.77;1.67;;;26.00;50.70;;;;;;5145946;27;20416;-81
2021/08/27 09:50:29;;;;;;;2.50;1.60;;;26.00;50.60;;;;;;5146212;27;20514;-81
2021/08/27 09:52:58;;;;;;;1.73;1.60;;;26.00;50.40;;;;;;5145848;27;20445;-83
2021/08/27 09:55:27;;;;;;;3.47;1.93;;;26.10;50.40;;;;;;5146451;27;20433;-82
2021/08/27 09:58:03;;;;;;;2.97;1.80;;;26.20;50.10;;;;;;5145685;27;20433;-85
2021/08/27 10:00:31;;;;;;;5.27;1.70;;;26.20;49.90;;;;;;5142262;27;20456;-83
2021/08/27 10:03:03;;;;;;;3.20;1.70;;;26.30;49.70;;;;;;5145979;27;20412;-82
2021/08/27 10:05:36;;;;;;;3.30;2.07;;;26.40;49.60;;;;;;5128173;27;20462;-81
2021/08/27 10:08:15;;;;;;;3.00;1.60;;;26.40;49.60;;;;;;5146179;27;20448;-83
2021/08/27 10:10:43;;;;;;;2.53;1.73;;;26.60;49.60;;;;;;5146323;27;20497;-81
2021/08/27 10:13:11;;;;;;;1.67;1.57;;;26.80;48.90;;;;;;5145960;27;20569;-80
2021/08/27 10:15:40;;;;;;;1.70;1.60;;;26.80;48.70;;;;;;5146417;27;20454;-80
2021/08/27 10:18:09;;;;;;;3.43;1.57;;;26.80;48.80;;;;;;5146145;27;20419;-80
2021/08/27 10:20:38;;;;;;;2.27;2.00;;;26.90;48.70;;;;;;5146682;27;20497;-81
2021/08/27 10:23:07;;;;;;;1.70;1.60;;;27.00;48.60;;;;;;5146226;27;20404;-80
2021/08/27 10:25:36;;;;;;;2.10;1.53;;;27.30;48.90;;;;;;5146218;27;20477;-80
2021/08/27 10:28:04;;;;;;;6.17;2.07;;;27.80;48.40;;;;;;5145453;27;20455;-81
2021/08/27 10:30:58;;;;;;;1.80;1.70;;;28.00;47.60;;;;;;5142103;27;20416;-80
2021/08/27 10:34:04;;;;;;;4.20;1.70;;;28.40;47.20;;;;;;5129511;27;20441;-80
2021/08/27 10:36:51;;;;;;;2.10;1.90;;;28.60;46.60;;;;;;5142724;27;20436;-81
2021/08/27 10:39:40;;;;;;;3.93;1.60;;;28.90;46.40;;;;;;5125266;27;20493;-80
2021/08/27 10:42:09;;;;;;;1.77;1.60;;;29.20;45.90;;;;;;5125177;27;20435;-77
2021/08/27 10:44:50;;;;;;;1.90;1.70;;;29.30;45.70;;;;;;5125164;27;20440;-77
2021/08/27 10:47:19;;;;;;;1.43;1.33;;;29.70;45.70;;;;;;5124968;27;20504;-77
2021/08/27 10:50:00;;;;;;;1.50;1.30;;;29.90;44.80;;;;;;5125494;27;20450;-77
2021/08/27 10:52:37;;;;;;;2.03;1.40;;;29.80;44.40;;;;;;5125167;28;20474;-77
2021/08/27 10:55:16;;;;;;;1.50;1.40;;;29.50;44.50;;;;;;5124901;28;20405;-78
2021/08/27 10:57:46;;;;;;;1.67;1.30;;;29.30;44.80;;;;;;5124913;28;20424;-77
2021/08/27 11:00:14;;;;;;;3.20;1.50;;;29.20;45.10;;;;;;5125430;28;20459;-77
2021/08/27 11:02:52;;;;;;;3.40;1.50;;;29.30;45.40;;;;;;5124908;27;20522;-77
2021/08/27 11:05:37;;;;;;;6.77;1.33;;;29.50;45.10;;;;;;5144250;27;20437;-77
2021/08/27 11:08:07;;;;;;;1.20;1.10;;;29.60;44.80;;;;;;5146096;27;20445;-77
2021/08/27 11:10:39;;;;;;;1.90;1.53;;;29.40;44.50;;;;;;5144622;27;20494;-77
2021/08/27 11:13:16;;;;;;;2.07;1.30;;;29.10;44.90;;;;;;5145594;27;20445;-77
2021/08/27 11:15:46;;;;;;;2.47;1.53;;;29.00;45.40;;;;;;5146496;27;20501;-77
2021/08/27 11:18:21;;;;;;;3.07;1.37;;;28.90;45.40;;;;;;5128335;27;20520;-77
2021/08/27 11:20:49;;;;;;;1.90;1.63;;;28.80;45.60;;;;;;5145032;27;20519;-77
2021/08/27 11:23:23;;;;;;;4.63;1.73;;;28.70;45.90;;;;;;5139210;27;20420;-77
2021/08/27 11:26:05;;;;;;;1.80;1.70;;;28.80;46.00;;;;;;5146434;27;20487;-76
2021/08/27 11:28:34;;;;;;;2.03;1.60;;;28.80;45.90;;;;;;5144649;27;20517;-77
2021/08/27 11:31:06;;;;;;;1.83;1.53;;;29.00;46.00;;;;;;5142336;27;20437;-78
2021/08/27 11:34:01;;;;;;;1.67;1.57;;;28.90;45.60;;;;;;5144596;27;20472;-77
2021/08/27 11:36:33;;;;;;;1.50;1.40;;;31.50;46.50;;;;;;5144982;27;20420;-77
2021/08/27 11:39:02;;;;;;;1.10;1.00;;;33.20;43.00;;;;;;5146356;27;20469;-77
2021/08/27 11:41:30;;;;;;;1.77;1.40;;;33.30;39.40;;;;;;5146186;27;20418;-77
2021/08/27 11:44:09;;;;;;;3.73;1.20;;;33.30;40.50;;;;;;5139441;27;20418;-78
2021/08/27 11:46:37;;;;;;;4.40;1.23;;;34.40;40.20;;;;;;5139605;27;20441;-77
2021/08/27 11:49:15;;;;;;;1.20;1.10;;;34.80;39.40;;;;;;5132916;27;20454;-77
2021/08/27 11:51:47;;;;;;;1.93;1.10;;;35.00;36.30;;;;;;5134794;27;20445;-77
2021/08/27 11:54:20;;;;;;;1.60;1.50;;;34.30;36.80;;;;;;5144695;27;20474;-77
2021/08/27 11:56:53;;;;;;;1.60;1.50;;;34.10;37.70;;;;;;5144270;27;20442;-77
2021/08/27 11:59:24;;;;;;;1.77;1.37;;;33.70;37.80;;;;;;5137518;27;20492;-79
2021/08/27 12:01:53;;;;;;;1.53;1.43;;;33.10;38.40;;;;;;5140198;27;20519;-79
2021/08/27 12:04:31;;;;;;;5.47;1.20;;;33.80;41.00;;;;;;5137917;27;20472;-79
2021/08/27 12:07:06;;;;;;;1.23;1.23;;;36.30;37.80;;;;;;5144126;27;20483;-80
2021/08/27 12:09:36;;;;;;;1.90;1.43;;;38.50;34.40;;;;;;5137052;27;20426;-79
2021/08/27 12:12:05;;;;;;;1.20;1.17;;;38.70;31.00;;;;;;5142986;27;20473;-80
2021/08/27 12:14:51;;;;;;;1.40;1.30;;;38.70;32.00;;;;;;5139311;27;20446;-80
2021/08/27 12:17:23;;;;;;;1.10;1.10;;;39.10;33.20;;;;;;5139199;27;20542;-80
2021/08/27 12:19:52;;;;;;;1.17;1.17;;;40.40;30.60;;;;;;5140876;27;20536;-80
2021/08/27 12:22:21;;;;;;;1.50;1.40;;;39.30;31.20;;;;;;5139679;27;20430;-80
2021/08/27 12:24:51;;;;;;;1.30;1.30;;;39.30;32.70;;;;;;5136877;27;20446;-80
2021/08/27 12:27:20;;;;;;;1.10;1.10;;;40.20;30.30;;;;;;5141232;27;20454;-80
2021/08/27 12:30:07;;;;;;;1.00;1.00;;;39.70;29.50;;;;;;5138826;27;20474;-80
2021/08/27 12:32:35;;;;;;;1.40;1.30;;;38.10;30.50;;;;;;5140263;27;20477;-80
2021/08/27 12:35:05;;;;;;;1.00;1.00;;;36.80;32.10;;;;;;5136697;27;20446;-80
2021/08/27 12:37:33;;;;;;;1.40;1.30;;;35.80;33.60;;;;;;5129183;27;20466;-80
2021/08/27 12:40:06;;;;;;;1.10;1.00;;;35.10;35.20;;;;;;5128631;27;20451;-80
2021/08/27 12:42:34;;;;;;;0.97;0.97;;;36.70;35.90;;;;;;5130342;27;20434;-78
2021/08/27 12:45:04;;;;;;;1.40;1.30;;;38.80;34.00;;;;;;5128443;27;20423;-77
2021/08/27 12:47:37;;;;;;;1.30;1.30;;;38.90;30.60;;;;;;5135825;27;20458;-78
2021/08/27 12:50:08;;;;;;;1.53;1.43;;;37.50;31.70;;;;;;5146215;27;20431;-80
2021/08/27 12:52:36;;;;;;;1.30;1.20;;;36.70;33.30;;;;;;5146905;27;20477;-77
2021/08/27 12:55:19;;;;;;;1.50;1.40;;;36.60;36.40;;;;;;5131046;27;20508;-78
2021/08/27 12:57:49;;;;;;;1.97;1.50;;;37.60;33.30;;;;;;5126288;27;20512;-78
2021/08/27 13:00:25;;;;;;;1.03;1.03;;;38.20;34.00;;;;;;5133435;27;20431;-79
2021/08/27 13:02:53;;;;;;;1.53;1.00;;;40.00;31.70;;;;;;5138345;27;20438;-79
2021/08/27 13:05:39;;;;;;;1.10;1.10;;;41.20;30.00;;;;;;5138263;27;20429;-78